Aviation Digital Data Service (ADDS)

Output produced by METARs form (1505 UTC 29 May 2017)
found at http://www.aviationweather.gov/adds/metars/
 
METAR text: KSAR 291455Z AUTO 28005KT 10SM CLR 22/14 A2997 RMK AO2 T02230138
Conditions at: KSAR (SPARTA , IL, US) observed 1455 UTC 29 May 2017
Temperature: 22.3°C (72°F)
Dewpoint: 13.8°C (57°F) [RH = 59%]
Pressure (altimeter): 29.97 inches Hg (1015.0 mb)
Winds: from the W (280 degrees) at 6 MPH (5 knots; 2.6 m/s)
Visibility: 10 or more miles (16+ km)
Ceiling: at least 12,000 feet AGL
Clouds: sky clear below 12,000 feet AGL
Weather: automated observation with no human augmentation;
there may or may not be significant weather present at this time